sensor_id;sensor_type;location;lat;lon;timestamp;pressure;altitude;pressure_sealevel;temperature
34125;BMP280;20110;53.120;5.786;2023-05-10T00:00:34;100706.13;;;17.66
34125;BMP280;20110;53.120;5.786;2023-05-10T00:03:00;100780.31;;;18.27
34125;BMP280;20110;53.120;5.786;2023-05-10T00:05:26;100755.66;;;18.11
34125;BMP280;20110;53.120;5.786;2023-05-10T00:07:51;100771.97;;;18.23
34125;BMP280;20110;53.120;5.786;2023-05-10T00:10:17;100772.53;;;18.22
34125;BMP280;20110;53.120;5.786;2023-05-10T00:12:43;100753.44;;;17.98
34125;BMP280;20110;53.120;5.786;2023-05-10T00:15:09;100757.53;;;18.09
34125;BMP280;20110;53.120;5.786;2023-05-10T00:17:35;100777.78;;;18.20
34125;BMP280;20110;53.120;5.786;2023-05-10T00:20:01;100767.44;;;18.16
34125;BMP280;20110;53.120;5.786;2023-05-10T00:22:27;100732.94;;;17.93
34125;BMP280;20110;53.120;5.786;2023-05-10T00:24:53;100756.56;;;18.14
34125;BMP280;20110;53.120;5.786;2023-05-10T00:27:19;100773.53;;;18.26
34125;BMP280;20110;53.120;5.786;2023-05-10T00:29:45;100766.75;;;18.16
34125;BMP280;20110;53.120;5.786;2023-05-10T00:32:10;100765.03;;;18.20
34125;BMP280;20110;53.120;5.786;2023-05-10T00:34:36;100730.06;;;17.91
34125;BMP280;20110;53.120;5.786;2023-05-10T00:37:02;100723.13;;;17.79
34125;BMP280;20110;53.120;5.786;2023-05-10T00:39:28;100772.25;;;18.18
34125;BMP280;20110;53.120;5.786;2023-05-10T00:41:54;100728.63;;;17.90
34125;BMP280;20110;53.120;5.786;2023-05-10T00:44:20;100759.63;;;18.20
34125;BMP280;20110;53.120;5.786;2023-05-10T00:46:47;100755.28;;;18.15
34125;BMP280;20110;53.120;5.786;2023-05-10T00:49:14;100769.97;;;18.24
34125;BMP280;20110;53.120;5.786;2023-05-10T00:51:41;100686.78;;;17.68
34125;BMP280;20110;53.120;5.786;2023-05-10T00:54:11;100761.22;;;18.23
34125;BMP280;20110;53.120;5.786;2023-05-10T00:56:40;100675.22;;;17.75
34125;BMP280;20110;53.120;5.786;2023-05-10T00:59:08;100707.84;;;17.91
34125;BMP280;20110;53.120;5.786;2023-05-10T01:01:35;100720.59;;;17.90
34125;BMP280;20110;53.120;5.786;2023-05-10T01:04:02;100764.19;;;18.27
34125;BMP280;20110;53.120;5.786;2023-05-10T01:06:29;100713.94;;;17.91
34125;BMP280;20110;53.120;5.786;2023-05-10T01:08:55;100726.66;;;17.91
34125;BMP280;20110;53.120;5.786;2023-05-10T01:11:21;100764.47;;;18.22
34125;BMP280;20110;53.120;5.786;2023-05-10T01:13:55;100765.16;;;18.22
34125;BMP280;20110;53.120;5.786;2023-05-10T01:16:23;100762.47;;;18.22
34125;BMP280;20110;53.120;5.786;2023-05-10T01:18:50;100757.09;;;18.22
34125;BMP280;20110;53.120;5.786;2023-05-10T01:34:12;100760.66;;;18.15
34125;BMP280;20110;53.120;5.786;2023-05-10T01:40:08;100756.56;;;18.14
34125;BMP280;20110;53.120;5.786;2023-05-10T01:42:51;100740.69;;;18.08
34125;BMP280;20110;53.120;5.786;2023-05-10T01:45:33;100735.03;;;18.04
34125;BMP280;20110;53.120;5.786;2023-05-10T01:48:10;100781.16;;;18.20
34125;BMP280;20110;53.120;5.786;2023-05-10T01:50:40;100738.69;;;17.90
34125;BMP280;20110;53.120;5.786;2023-05-10T01:53:11;100771.22;;;18.13
34125;BMP280;20110;53.120;5.786;2023-05-10T01:55:53;100763.59;;;18.00
34125;BMP280;20110;53.120;5.786;2023-05-10T01:58:29;100759.06;;;18.02
34125;BMP280;20110;53.120;5.786;2023-05-10T02:00:58;100767.72;;;18.30
34125;BMP280;20110;53.120;5.786;2023-05-10T02:03:28;100745.09;;;18.04
34125;BMP280;20110;53.120;5.786;2023-05-10T02:05:57;100693.16;;;17.73
34125;BMP280;20110;53.120;5.786;2023-05-10T02:08:24;100767.59;;;18.18
34125;BMP280;20110;53.120;5.786;2023-05-10T02:10:54;100763.03;;;18.21
34125;BMP280;20110;53.120;5.786;2023-05-10T02:13:23;100647.44;;;17.44
34125;BMP280;20110;53.120;5.786;2023-05-10T02:15:51;100766.59;;;18.23
34125;BMP280;20110;53.120;5.786;2023-05-10T02:18:19;100768.69;;;18.34
34125;BMP280;20110;53.120;5.786;2023-05-10T02:20:47;100772.28;;;18.37
34125;BMP280;20110;53.120;5.786;2023-05-10T02:23:13;100752.56;;;18.25
34125;BMP280;20110;53.120;5.786;2023-05-10T02:25:41;100782.84;;;18.35
34125;BMP280;20110;53.120;5.786;2023-05-10T02:28:10;100781.88;;;18.30
34125;BMP280;20110;53.120;5.786;2023-05-10T02:30:37;100779.19;;;18.30
34125;BMP280;20110;53.120;5.786;2023-05-10T02:33:06;100785.72;;;18.37
34125;BMP280;20110;53.120;5.786;2023-05-10T02:35:32;100698.09;;;17.86
34125;BMP280;20110;53.120;5.786;2023-05-10T02:37:59;100782.16;;;18.44
34125;BMP280;20110;53.120;5.786;2023-05-10T02:40:29;100763.63;;;18.29
34125;BMP280;20110;53.120;5.786;2023-05-10T02:42:57;100768.28;;;18.38
34125;BMP280;20110;53.120;5.786;2023-05-10T02:45:30;100778.03;;;18.43
34125;BMP280;20110;53.120;5.786;2023-05-10T02:47:58;100769.28;;;18.42
34125;BMP280;20110;53.120;5.786;2023-05-10T02:50:27;100784.44;;;18.47
34125;BMP280;20110;53.120;5.786;2023-05-10T02:53:00;100762.63;;;18.34
34125;BMP280;20110;53.120;5.786;2023-05-10T02:55:36;100746.66;;;18.26
34125;BMP280;20110;53.120;5.786;2023-05-10T02:58:04;100790.53;;;18.58
34125;BMP280;20110;53.120;5.786;2023-05-10T03:00:31;100738.16;;;18.30
34125;BMP280;20110;53.120;5.786;2023-05-10T03:02:58;100702.25;;;18.06
34125;BMP280;20110;53.120;5.786;2023-05-10T03:05:24;100707.19;;;18.09
34125;BMP280;20110;53.120;5.786;2023-05-10T03:07:50;100795.47;;;18.61
34125;BMP280;20110;53.120;5.786;2023-05-10T03:10:18;100766.03;;;18.44
34125;BMP280;20110;53.120;5.786;2023-05-10T03:16:28;100787.09;;;18.57
34125;BMP280;20110;53.120;5.786;2023-05-10T03:19:27;100783.56;;;18.45
34125;BMP280;20110;53.120;5.786;2023-05-10T03:22:04;100791.78;;;18.47
34125;BMP280;20110;53.120;5.786;2023-05-10T03:24:36;100755.13;;;18.23
34125;BMP280;20110;53.120;5.786;2023-05-10T03:27:04;100783.97;;;18.41
34125;BMP280;20110;53.120;5.786;2023-05-10T03:29:31;100797.88;;;18.47
34125;BMP280;20110;53.120;5.786;2023-05-10T03:32:01;100804.66;;;18.48
34125;BMP280;20110;53.120;5.786;2023-05-10T03:34:30;100757.81;;;18.23
34125;BMP280;20110;53.120;5.786;2023-05-10T03:36:59;100777.06;;;18.29
34125;BMP280;20110;53.120;5.786;2023-05-10T03:39:25;100811.44;;;18.59
34125;BMP280;20110;53.120;5.786;2023-05-10T03:41:51;100794.75;;;18.51
34125;BMP280;20110;53.120;5.786;2023-05-10T03:44:17;100802.81;;;18.51
34125;BMP280;20110;53.120;5.786;2023-05-10T03:46:43;100819.78;;;18.63
34125;BMP280;20110;53.120;5.786;2023-05-10T03:49:08;100786.81;;;18.43
34125;BMP280;20110;53.120;5.786;2023-05-10T03:51:34;100773.53;;;18.26
34125;BMP280;20110;53.120;5.786;2023-05-10T03:54:00;100828.44;;;18.62
34125;BMP280;20110;53.120;5.786;2023-05-10T03:56:26;100825.59;;;18.60
34125;BMP280;20110;53.120;5.786;2023-05-10T03:58:52;100825.75;;;18.52
34125;BMP280;20110;53.120;5.786;2023-05-10T04:01:18;100813.28;;;18.47
34125;BMP280;20110;53.120;5.786;2023-05-10T04:03:43;100822.06;;;18.47
34125;BMP280;20110;53.120;5.786;2023-05-10T04:06:10;100822.91;;;18.40
34125;BMP280;20110;53.120;5.786;2023-05-10T04:08:37;100822.91;;;18.31
34125;BMP280;20110;53.120;5.786;2023-05-10T04:11:11;100814.97;;;18.23
34125;BMP280;20110;53.120;5.786;2023-05-10T04:13:37;100799.56;;;18.14
34125;BMP280;20110;53.120;5.786;2023-05-10T04:16:04;100818.94;;;18.32
34125;BMP280;20110;53.120;5.786;2023-05-10T04:18:30;100756.94;;;17.91
34125;BMP280;20110;53.120;5.786;2023-05-10T04:20:57;100820.78;;;18.39
34125;BMP280;20110;53.120;5.786;2023-05-10T04:23:23;100761.47;;;17.89
34125;BMP280;20110;53.120;5.786;2023-05-10T04:25:49;100765.56;;;17.90
34125;BMP280;20110;53.120;5.786;2023-05-10T04:28:14;100774.63;;;17.94
34125;BMP280;20110;53.120;5.786;2023-05-10T04:30:40;100838.34;;;18.40
34125;BMP280;20110;53.120;5.786;2023-05-10T04:33:06;100838.34;;;18.40
34125;BMP280;20110;53.120;5.786;2023-05-10T04:35:32;100818.53;;;18.26
34125;BMP280;20110;53.120;5.786;2023-05-10T04:37:59;100840.16;;;18.37
34125;BMP280;20110;53.120;5.786;2023-05-10T04:40:26;100850.50;;;18.41
34125;BMP280;20110;53.120;5.786;2023-05-10T04:42:51;100846.53;;;18.42
34125;BMP280;20110;53.120;5.786;2023-05-10T04:45:17;100814.38;;;18.25
34125;BMP280;20110;53.120;5.786;2023-05-10T04:47:43;100765.69;;;17.82
34125;BMP280;20110;53.120;5.786;2023-05-10T04:50:09;100824.03;;;18.28
34125;BMP280;20110;53.120;5.786;2023-05-10T04:52:35;100858.31;;;18.46
34125;BMP280;20110;53.120;5.786;2023-05-10T04:55:02;100851.47;;;18.45
34125;BMP280;20110;53.120;5.786;2023-05-10T04:57:27;100785.38;;;18.04
34125;BMP280;20110;53.120;5.786;2023-05-10T04:59:53;100848.22;;;18.37
34125;BMP280;20110;53.120;5.786;2023-05-10T05:02:19;100846.53;;;18.32
34125;BMP280;20110;53.120;5.786;2023-05-10T05:04:45;100857.00;;;18.38
34125;BMP280;20110;53.120;5.786;2023-05-10T05:07:10;100843.41;;;18.26
34125;BMP280;20110;53.120;5.786;2023-05-10T05:09:36;100807.84;;;17.99
34125;BMP280;20110;53.120;5.786;2023-05-10T05:12:02;100861.38;;;18.33
34125;BMP280;20110;53.120;5.786;2023-05-10T05:14:28;100816.78;;;18.01
34125;BMP280;20110;53.120;5.786;2023-05-10T05:16:54;100858.56;;;18.31
34125;BMP280;20110;53.120;5.786;2023-05-10T05:19:20;100843.94;;;18.25
34125;BMP280;20110;53.120;5.786;2023-05-10T05:21:46;100884.19;;;18.52
34125;BMP280;20110;53.120;5.786;2023-05-10T05:24:11;100812.06;;;17.92
34125;BMP280;20110;53.120;5.786;2023-05-10T05:26:38;100864.78;;;18.24
34125;BMP280;20110;53.120;5.786;2023-05-10T05:29:04;100827.22;;;17.97
34125;BMP280;20110;53.120;5.786;2023-05-10T05:31:30;100901.59;;;18.50
34125;BMP280;20110;53.120;5.786;2023-05-10T05:33:56;100857.25;;;18.23
34125;BMP280;20110;53.120;5.786;2023-05-10T05:36:22;100881.91;;;18.38
34125;BMP280;20110;53.120;5.786;2023-05-10T05:38:48;100888.41;;;18.35
34125;BMP280;20110;53.120;5.786;2023-05-10T05:41:13;100846.88;;;18.00
34125;BMP280;20110;53.120;5.786;2023-05-10T05:43:39;100893.78;;;18.35
34125;BMP280;20110;53.120;5.786;2023-05-10T05:46:05;100924.97;;;18.48
34125;BMP280;20110;53.120;5.786;2023-05-10T05:48:31;100897.63;;;18.42
34125;BMP280;20110;53.120;5.786;2023-05-10T05:50:57;100907.13;;;18.53
34125;BMP280;20110;53.120;5.786;2023-05-10T05:53:23;100919.88;;;18.71
34125;BMP280;20110;53.120;5.786;2023-05-10T05:55:58;100917.91;;;18.72
34125;BMP280;20110;53.120;5.786;2023-05-10T05:58:25;100919.34;;;18.82
34125;BMP280;20110;53.120;5.786;2023-05-10T06:00:51;100911.94;;;18.64
34125;BMP280;20110;53.120;5.786;2023-05-10T06:03:19;100919.44;;;18.75
34125;BMP280;20110;53.120;5.786;2023-05-10T06:05:45;100941.13;;;18.77
34125;BMP280;20110;53.120;5.786;2023-05-10T06:08:11;100937.31;;;18.70
34125;BMP280;20110;53.120;5.786;2023-05-10T06:10:37;100930.94;;;18.66
34125;BMP280;20110;53.120;5.786;2023-05-10T06:13:03;100910.97;;;18.59
34125;BMP280;20110;53.120;5.786;2023-05-10T06:15:29;100939.00;;;18.75
34125;BMP280;20110;53.120;5.786;2023-05-10T06:17:55;100931.22;;;18.70
34125;BMP280;20110;53.120;5.786;2023-05-10T06:20:21;100880.09;;;18.41
34125;BMP280;20110;53.120;5.786;2023-05-10T06:22:46;100903.47;;;18.58
34125;BMP280;20110;53.120;5.786;2023-05-10T06:25:12;100932.22;;;18.74
34125;BMP280;20110;53.120;5.786;2023-05-10T06:27:39;100949.66;;;18.83
34125;BMP280;20110;53.120;5.786;2023-05-10T06:30:06;100935.03;;;18.76
34125;BMP280;20110;53.120;5.786;2023-05-10T06:32:33;100949.34;;;18.88
34125;BMP280;20110;53.120;5.786;2023-05-10T06:34:59;100942.25;;;18.74
34125;BMP280;20110;53.120;5.786;2023-05-10T06:37:25;100950.75;;;18.80
34125;BMP280;20110;53.120;5.786;2023-05-10T06:39:51;100950.63;;;18.78
34125;BMP280;20110;53.120;5.786;2023-05-10T06:42:16;100925.53;;;18.56
34125;BMP280;20110;53.120;5.786;2023-05-10T06:44:42;100967.31;;;18.76
34125;BMP280;20110;53.120;5.786;2023-05-10T06:47:09;100961.81;;;18.74
34125;BMP280;20110;53.120;5.786;2023-05-10T06:49:35;100949.31;;;18.60
34125;BMP280;20110;53.120;5.786;2023-05-10T06:52:01;100965.06;;;18.73
34125;BMP280;20110;53.120;5.786;2023-05-10T06:54:26;100975.94;;;18.75
34125;BMP280;20110;53.120;5.786;2023-05-10T06:56:52;100965.06;;;18.73
34125;BMP280;20110;53.120;5.786;2023-05-10T06:59:18;100975.38;;;18.76
34125;BMP280;20110;53.120;5.786;2023-05-10T07:01:44;100973.84;;;18.83
34125;BMP280;20110;53.120;5.786;2023-05-10T07:04:10;100973.72;;;18.81
34125;BMP280;20110;53.120;5.786;2023-05-10T07:06:36;100987.31;;;18.83
34125;BMP280;20110;53.120;5.786;2023-05-10T07:09:02;100878.31;;;18.07
34125;BMP280;20110;53.120;5.786;2023-05-10T07:11:28;100935.75;;;18.58
34125;BMP280;20110;53.120;5.786;2023-05-10T07:13:54;100958.28;;;18.91
34125;BMP280;20110;53.120;5.786;2023-05-10T07:16:19;100941.13;;;18.77
34125;BMP280;20110;53.120;5.786;2023-05-10T07:18:46;100988.03;;;19.12
34125;BMP280;20110;53.120;5.786;2023-05-10T07:21:12;100969.31;;;19.05
34125;BMP280;20110;53.120;5.786;2023-05-10T07:23:38;100997.22;;;19.28
34125;BMP280;20110;53.120;5.786;2023-05-10T07:26:04;100974.00;;;19.23
34125;BMP280;20110;53.120;5.786;2023-05-10T07:28:30;100930.38;;;18.96
34125;BMP280;20110;53.120;5.786;2023-05-10T07:30:56;100998.06;;;19.50
34125;BMP280;20110;53.120;5.786;2023-05-10T07:33:22;100958.28;;;19.20
34125;BMP280;20110;53.120;5.786;2023-05-10T07:35:47;101001.31;;;19.49
34125;BMP280;20110;53.120;5.786;2023-05-10T07:38:13;100999.06;;;19.55
34125;BMP280;20110;53.120;5.786;2023-05-10T07:40:39;100989.00;;;19.55
34125;BMP280;20110;53.120;5.786;2023-05-10T07:43:05;100999.66;;;19.84
34125;BMP280;20110;53.120;5.786;2023-05-10T07:45:33;100975.59;;;19.77
34125;BMP280;20110;53.120;5.786;2023-05-10T07:47:58;101005.41;;;20.09
34125;BMP280;20110;53.120;5.786;2023-05-10T07:50:24;101010.66;;;20.07
34125;BMP280;20110;53.120;5.786;2023-05-10T07:52:50;100983.22;;;19.90
34125;BMP280;20110;53.120;5.786;2023-05-10T07:55:18;101012.81;;;20.09
34125;BMP280;20110;53.120;5.786;2023-05-10T07:57:46;101001.69;;;20.15
34125;BMP280;20110;53.120;5.786;2023-05-10T08:00:17;101028.41;;;20.41
34125;BMP280;20110;53.120;5.786;2023-05-10T08:02:43;100975.22;;;20.32
34125;BMP280;20110;53.120;5.786;2023-05-10T08:05:09;101023.47;;;20.80
34125;BMP280;20110;53.120;5.786;2023-05-10T08:07:35;101029.78;;;20.73
34125;BMP280;20110;53.120;5.786;2023-05-10T08:10:02;100967.56;;;20.29
34125;BMP280;20110;53.120;5.786;2023-05-10T08:12:28;101005.66;;;20.66
34125;BMP280;20110;53.120;5.786;2023-05-10T08:14:54;101030.50;;;20.95
34125;BMP280;20110;53.120;5.786;2023-05-10T08:17:19;101007.63;;;20.75
34125;BMP280;20110;53.120;5.786;2023-05-10T08:19:47;101051.34;;;21.16
34125;BMP280;20110;53.120;5.786;2023-05-10T08:22:13;101006.03;;;20.93
34125;BMP280;20110;53.120;5.786;2023-05-10T08:24:38;101009.59;;;20.96
34125;BMP280;20110;53.120;5.786;2023-05-10T08:27:08;101043.59;;;21.22
34125;BMP280;20110;53.120;5.786;2023-05-10T08:29:34;101011.88;;;21.11
34125;BMP280;20110;53.120;5.786;2023-05-10T08:32:00;101011.31;;;21.24
34125;BMP280;20110;53.120;5.786;2023-05-10T08:34:29;101027.22;;;21.41
34125;BMP280;20110;53.120;5.786;2023-05-10T08:36:56;101023.81;;;21.41
34125;BMP280;20110;53.120;5.786;2023-05-10T08:39:23;101031.94;;;21.41
34125;BMP280;20110;53.120;5.786;2023-05-10T08:41:51;101030.22;;;21.24
34125;BMP280;20110;53.120;5.786;2023-05-10T08:44:21;101022.47;;;21.18
34125;BMP280;20110;53.120;5.786;2023-05-10T08:46:49;101029.34;;;21.43
34125;BMP280;20110;53.120;5.786;2023-05-10T08:49:21;101042.81;;;22.10
34125;BMP280;20110;53.120;5.786;2023-05-10T08:51:54;101031.81;;;22.92
34125;BMP280;20110;53.120;5.786;2023-05-10T08:54:21;101037.09;;;23.40
34125;BMP280;20110;53.120;5.786;2023-05-10T08:56:48;101045.06;;;23.50
34125;BMP280;20110;53.120;5.786;2023-05-10T08:59:13;101060.09;;;23.39
34125;BMP280;20110;53.120;5.786;2023-05-10T09:01:42;101035.03;;;23.14
34125;BMP280;20110;53.120;5.786;2023-05-10T09:04:09;101054.75;;;23.28
34125;BMP280;20110;53.120;5.786;2023-05-10T09:06:36;101070.66;;;23.47
34125;BMP280;20110;53.120;5.786;2023-05-10T09:09:02;101073.91;;;23.57
34125;BMP280;20110;53.120;5.786;2023-05-10T09:11:29;101029.66;;;23.27
34125;BMP280;20110;53.120;5.786;2023-05-10T09:13:55;101087.56;;;23.73
34125;BMP280;20110;53.120;5.786;2023-05-10T09:16:23;101092.00;;;23.80
34125;BMP280;20110;53.120;5.786;2023-05-10T09:18:49;101078.03;;;23.58
34125;BMP280;20110;53.120;5.786;2023-05-10T09:21:15;101022.66;;;23.11
34125;BMP280;20110;53.120;5.786;2023-05-10T09:23:45;101110.38;;;23.42
34125;BMP280;20110;53.120;5.786;2023-05-10T09:26:12;101094.63;;;23.14
34125;BMP280;20110;53.120;5.786;2023-05-10T09:28:57;101092.19;;;23.06
34125;BMP280;20110;53.120;5.786;2023-05-10T09:31:23;101077.50;;;23.48
34125;BMP280;20110;53.120;5.786;2023-05-10T09:33:53;101093.41;;;23.81
34125;BMP280;20110;53.120;5.786;2023-05-10T09:36:19;101075.81;;;23.55
34125;BMP280;20110;53.120;5.786;2023-05-10T09:38:50;101102.75;;;23.78
34125;BMP280;20110;53.120;5.786;2023-05-10T09:41:22;101046.16;;;23.59
34125;BMP280;20110;53.120;5.786;2023-05-10T09:43:49;101007.09;;;23.50
34125;BMP280;20110;53.120;5.786;2023-05-10T09:46:16;101078.94;;;23.76
34125;BMP280;20110;53.120;5.786;2023-05-10T09:48:47;101122.88;;;23.86
34125;BMP280;20110;53.120;5.786;2023-05-10T09:51:24;101031.63;;;23.13
34125;BMP280;20110;53.120;5.786;2023-05-10T09:54:16;101117.47;;;23.61
34125;BMP280;20110;53.120;5.786;2023-05-10T09:56:42;101111.94;;;23.59
34125;BMP280;20110;53.120;5.786;2023-05-10T09:59:11;101088.94;;;23.60
34125;BMP280;20110;53.120;5.786;2023-05-10T10:01:38;101115.81;;;23.95
34125;BMP280;20110;53.120;5.786;2023-05-10T10:04:07;101132.00;;;24.07
34125;BMP280;20110;53.120;5.786;2023-05-10T10:06:40;101131.72;;;24.01
34125;BMP280;20110;53.120;5.786;2023-05-10T10:09:07;101093.31;;;23.92
34125;BMP280;20110;53.120;5.786;2023-05-10T10:11:38;101092.91;;;24.25
34125;BMP280;20110;53.120;5.786;2023-05-10T10:14:05;101121.47;;;24.54
34125;BMP280;20110;53.120;5.786;2023-05-10T10:16:32;101117.03;;;24.47
34125;BMP280;20110;53.120;5.786;2023-05-10T10:18:58;101122.97;;;24.43
34125;BMP280;20110;53.120;5.786;2023-05-10T10:21:24;101115.44;;;24.42
34125;BMP280;20110;53.120;5.786;2023-05-10T10:23:51;101127.47;;;24.66
34125;BMP280;20110;53.120;5.786;2023-05-10T10:26:19;101129.84;;;24.73
34125;BMP280;20110;53.120;5.786;2023-05-10T10:31:40;101141.34;;;25.01
34125;BMP280;20110;53.120;5.786;2023-05-10T10:34:09;101157.91;;;25.21
34125;BMP280;20110;53.120;5.786;2023-05-10T10:36:46;101155.41;;;25.11
34125;BMP280;20110;53.120;5.786;2023-05-10T10:39:13;101154.25;;;25.01
34125;BMP280;20110;53.120;5.786;2023-05-10T10:41:50;101144.63;;;24.70
34125;BMP280;20110;53.120;5.786;2023-05-10T10:47:04;101155.91;;;24.78
34125;BMP280;20110;53.120;5.786;2023-05-10T10:52:27;101162.31;;;24.99
34125;BMP280;20110;53.120;5.786;2023-05-10T10:55:17;101143.50;;;25.18
34125;BMP280;20110;53.120;5.786;2023-05-10T10:57:49;101157.44;;;25.71
34125;BMP280;20110;53.120;5.786;2023-05-10T11:00:35;101158.75;;;26.02
34125;BMP280;20110;53.120;5.786;2023-05-10T11:03:06;101166.00;;;26.29
34125;BMP280;20110;53.120;5.786;2023-05-10T11:05:48;101169.34;;;26.11
34125;BMP280;20110;53.120;5.786;2023-05-10T11:08:25;101154.59;;;26.01
34125;BMP280;20110;53.120;5.786;2023-05-10T11:13:42;101178.47;;;26.18
34125;BMP280;20110;53.120;5.786;2023-05-10T11:16:14;101183.09;;;26.31
34125;BMP280;20110;53.120;5.786;2023-05-10T11:18:40;101186.09;;;26.22
34125;BMP280;20110;53.120;5.786;2023-05-10T11:21:09;101166.47;;;25.76
34125;BMP280;20110;53.120;5.786;2023-05-10T11:26:14;101196.72;;;25.68
34125;BMP280;20110;53.120;5.786;2023-05-10T11:28:48;101162.16;;;25.40
34125;BMP280;20110;53.120;5.786;2023-05-10T11:31:16;101181.03;;;25.67
34125;BMP280;20110;53.120;5.786;2023-05-10T11:33:50;101198.34;;;25.89
34125;BMP280;20110;53.120;5.786;2023-05-10T11:36:29;101179.72;;;25.99
34125;BMP280;20110;53.120;5.786;2023-05-10T11:38:57;101200.69;;;26.12
34125;BMP280;20110;53.120;5.786;2023-05-10T11:41:24;101200.38;;;26.04
34125;BMP280;20110;53.120;5.786;2023-05-10T11:43:53;101207.03;;;26.17
34125;BMP280;20110;53.120;5.786;2023-05-10T11:46:25;101203.69;;;26.52
34125;BMP280;20110;53.120;5.786;2023-05-10T11:49:00;101214.72;;;26.72
34125;BMP280;20110;53.120;5.786;2023-05-10T11:51:27;101169.09;;;26.72
34125;BMP280;20110;53.120;5.786;2023-05-10T11:53:55;101207.50;;;27.14
34125;BMP280;20110;53.120;5.786;2023-05-10T11:56:22;101175.16;;;27.06
34125;BMP280;20110;53.120;5.786;2023-05-10T11:58:57;101197.88;;;27.30
34125;BMP280;20110;53.120;5.786;2023-05-10T12:01:25;101222.53;;;27.32
34125;BMP280;20110;53.120;5.786;2023-05-10T12:03:54;101210.84;;;27.12
34125;BMP280;20110;53.120;5.786;2023-05-10T12:06:21;101219.00;;;27.30
34125;BMP280;20110;53.120;5.786;2023-05-10T12:08:48;101223.38;;;27.54
34125;BMP280;20110;53.120;5.786;2023-05-10T12:11:19;101200.13;;;27.73
34125;BMP280;20110;53.120;5.786;2023-05-10T12:13:47;101187.63;;;28.27
34125;BMP280;20110;53.120;5.786;2023-05-10T12:16:19;101147.78;;;28.40
34125;BMP280;20110;53.120;5.786;2023-05-10T12:18:52;101224.19;;;28.60
34125;BMP280;20110;53.120;5.786;2023-05-10T12:21:21;101223.25;;;28.29
34125;BMP280;20110;53.120;5.786;2023-05-10T12:23:53;101219.13;;;28.09
34125;BMP280;20110;53.120;5.786;2023-05-10T12:26:24;101231.50;;;27.92
34125;BMP280;20110;53.120;5.786;2023-05-10T12:28:50;101236.53;;;27.99
34125;BMP280;20110;53.120;5.786;2023-05-10T12:31:16;101197.06;;;27.63
34125;BMP280;20110;53.120;5.786;2023-05-10T12:33:43;101238.84;;;27.87
34125;BMP280;20110;53.120;5.786;2023-05-10T12:36:14;101220.13;;;27.60
34125;BMP280;20110;53.120;5.786;2023-05-10T12:38:46;101198.44;;;27.44
34125;BMP280;20110;53.120;5.786;2023-05-10T12:41:17;101239.50;;;27.86
34125;BMP280;20110;53.120;5.786;2023-05-10T12:43:44;101224.16;;;27.77
34125;BMP280;20110;53.120;5.786;2023-05-10T12:46:17;101218.53;;;27.92
34125;BMP280;20110;53.120;5.786;2023-05-10T12:48:44;101207.97;;;27.83
34125;BMP280;20110;53.120;5.786;2023-05-10T12:51:11;101238.78;;;28.05
34125;BMP280;20110;53.120;5.786;2023-05-10T12:53:40;101249.06;;;28.26
34125;BMP280;20110;53.120;5.786;2023-05-10T12:56:07;101229.84;;;28.44
34125;BMP280;20110;53.120;5.786;2023-05-10T12:58:32;101216.59;;;28.15
34125;BMP280;20110;53.120;5.786;2023-05-10T13:00:59;101209.47;;;27.86
34125;BMP280;20110;53.120;5.786;2023-05-10T13:03:25;101233.38;;;27.87
34125;BMP280;20110;53.120;5.786;2023-05-10T13:05:51;101244.44;;;27.72
34125;BMP280;20110;53.120;5.786;2023-05-10T13:08:17;101215.50;;;27.45
34125;BMP280;20110;53.120;5.786;2023-05-10T13:10:43;101258.00;;;27.89
34125;BMP280;20110;53.120;5.786;2023-05-10T13:13:09;101252.53;;;27.70
34125;BMP280;20110;53.120;5.786;2023-05-10T13:15:35;101256.72;;;27.53
34125;BMP280;20110;53.120;5.786;2023-05-10T13:18:01;101254.00;;;27.53
34125;BMP280;20110;53.120;5.786;2023-05-10T13:20:27;101253.69;;;27.45
34125;BMP280;20110;53.120;5.786;2023-05-10T13:22:53;101233.53;;;27.17
34125;BMP280;20110;53.120;5.786;2023-05-10T13:25:19;101210.69;;;26.90
34125;BMP280;20110;53.120;5.786;2023-05-10T13:27:45;101262.63;;;27.30
34125;BMP280;20110;53.120;5.786;2023-05-10T13:30:11;101259.38;;;27.16
34125;BMP280;20110;53.120;5.786;2023-05-10T13:32:38;101256.16;;;26.86
34125;BMP280;20110;53.120;5.786;2023-05-10T13:35:05;101256.28;;;26.39
34125;BMP280;20110;53.120;5.786;2023-05-10T13:37:32;101253.72;;;25.80
34125;BMP280;20110;53.120;5.786;2023-05-10T13:40:01;101248.91;;;25.20
34125;BMP280;20110;53.120;5.786;2023-05-10T13:42:27;101242.44;;;24.84
34125;BMP280;20110;53.120;5.786;2023-05-10T13:44:53;101264.53;;;25.06
34125;BMP280;20110;53.120;5.786;2023-05-10T13:47:18;101271.59;;;24.97
34125;BMP280;20110;53.120;5.786;2023-05-10T13:49:44;101264.22;;;25.00
34125;BMP280;20110;53.120;5.786;2023-05-10T13:52:10;101254.84;;;25.03
34125;BMP280;20110;53.120;5.786;2023-05-10T13:54:36;101228.97;;;24.86
34125;BMP280;20110;53.120;5.786;2023-05-10T13:57:04;101242.50;;;25.00
34125;BMP280;20110;53.120;5.786;2023-05-10T13:59:30;101236.75;;;25.07
34125;BMP280;20110;53.120;5.786;2023-05-10T14:02:00;101266.34;;;25.44
34125;BMP280;20110;53.120;5.786;2023-05-10T14:04:29;101260.69;;;25.54
34125;BMP280;20110;53.120;5.786;2023-05-10T14:06:56;101263.91;;;25.50
34125;BMP280;20110;53.120;5.786;2023-05-10T14:09:22;101258.47;;;25.50
34125;BMP280;20110;53.120;5.786;2023-05-10T14:11:47;101275.22;;;25.74
34125;BMP280;20110;53.120;5.786;2023-05-10T14:14:13;101272.69;;;25.94
34125;BMP280;20110;53.120;5.786;2023-05-10T14:16:44;101283.03;;;25.97
34125;BMP280;20110;53.120;5.786;2023-05-10T14:19:10;101267.41;;;25.98
34125;BMP280;20110;53.120;5.786;2023-05-10T14:21:37;101244.78;;;25.93
34125;BMP280;20110;53.120;5.786;2023-05-10T14:24:02;101255.03;;;26.10
34125;BMP280;20110;53.120;5.786;2023-05-10T14:26:28;101278.13;;;26.09
34125;BMP280;20110;53.120;5.786;2023-05-10T14:28:54;101267.19;;;25.62
34125;BMP280;20110;53.120;5.786;2023-05-10T14:31:20;101258.97;;;25.47
34125;BMP280;20110;53.120;5.786;2023-05-10T14:33:49;101245.94;;;25.43